createdAt,value
2018-09-11T00:00:29.664Z,98634.49
2018-09-11T00:01:32.653Z,98632.72
2018-09-11T00:02:35.432Z,98641.28
2018-09-11T00:03:38.314Z,98635.02
2018-09-11T00:04:41.448Z,98640.56
2018-09-11T00:05:44.534Z,98636.56
2018-09-11T00:06:47.383Z,98635.88
2018-09-11T00:07:50.223Z,98633.72
2018-09-11T00:08:53.095Z,98631.36
2018-09-11T00:09:56.009Z,98636.28
2018-09-11T00:10:58.777Z,98639.97
2018-09-11T00:12:02.545Z,98639.24
2018-09-11T00:13:06.109Z,98641.94
2018-09-11T00:14:08.975Z,98644.58
2018-09-11T00:15:11.753Z,98643.19
2018-09-11T00:16:14.594Z,98646.77
2018-09-11T00:17:17.320Z,98647.16
2018-09-11T00:18:20.093Z,98647.80
2018-09-11T00:19:23.929Z,98645.55
2018-09-11T00:20:26.783Z,98646.23
2018-09-11T00:21:29.535Z,98650.19
2018-09-11T00:22:33.079Z,98645.58
2018-09-11T00:23:35.912Z,98649.15
2018-09-11T00:24:38.645Z,98641.77
2018-09-11T00:25:41.834Z,98646.03
2018-09-11T00:26:44.754Z,98638.70
2018-09-11T00:27:48.078Z,98645.54
2018-09-11T00:28:50.905Z,98640.91
2018-09-11T00:29:53.756Z,98631.91
2018-09-11T00:30:56.792Z,98633.43
2018-09-11T00:31:59.852Z,98631.13
2018-09-11T00:33:03.809Z,98633.43
2018-09-11T00:34:06.725Z,98633.57
2018-09-11T00:35:09.443Z,98637.29
2018-09-11T00:36:13.850Z,98634.31
2018-09-11T00:37:16.609Z,98637.58
2018-09-11T00:38:19.685Z,98641.54
2018-09-11T00:39:23.088Z,98640.22
2018-09-11T00:40:26.084Z,98640.27
2018-09-11T00:41:28.812Z,98640.12
2018-09-11T00:42:31.582Z,98642.52
2018-09-11T00:43:34.797Z,98639.73
2018-09-11T00:44:37.825Z,98637.77
2018-09-11T00:45:40.572Z,98643.09
2018-09-11T00:46:43.371Z,98638.85
2018-09-11T00:47:46.278Z,98642.66
2018-09-11T00:48:49.220Z,98638.95
2018-09-11T00:49:52.148Z,98638.41
2018-09-11T00:50:55.417Z,98635.14
2018-09-11T00:51:58.221Z,98631.71
2018-09-11T00:53:00.951Z,98638.75
2018-09-11T00:54:03.791Z,98630.69
2018-09-11T00:55:06.522Z,98637.14
2018-09-11T00:56:09.262Z,98638.75
2018-09-11T00:57:12.324Z,98639.09
2018-09-11T00:58:15.088Z,98628.65
2018-09-11T00:59:21.499Z,98634.13
2018-09-11T01:00:24.255Z,98635.97
2018-09-11T01:01:27.002Z,98629.37
2018-09-11T01:02:29.725Z,98633.91
2018-09-11T01:03:32.808Z,98628.09
2018-09-11T01:04:35.597Z,98639.71
2018-09-11T01:05:38.370Z,98637.61
2018-09-11T01:06:41.105Z,98646.25
2018-09-11T01:07:43.984Z,98642.00
2018-09-11T01:08:46.877Z,98640.53
2018-09-11T01:09:51.047Z,98645.70
2018-09-11T01:10:54.128Z,98641.61
2018-09-11T01:11:57.021Z,98646.67
2018-09-11T01:12:59.761Z,98641.17
2018-09-11T01:14:03.764Z,98637.67
2018-09-11T01:15:06.510Z,98643.67
2018-09-11T01:16:10.238Z,98641.05
2018-09-11T01:17:13.027Z,98638.41
2018-09-11T01:18:15.786Z,98640.75
2018-09-11T01:19:18.641Z,98637.87
2018-09-11T01:20:21.415Z,98645.20
2018-09-11T01:21:24.622Z,98649.59
2018-09-11T01:22:28.216Z,98648.46
2018-09-11T01:23:30.950Z,98647.82
2018-09-11T01:24:33.742Z,98651.68
2018-09-11T01:25:36.476Z,98654.70
2018-09-11T01:26:39.224Z,98656.37
2018-09-11T01:27:41.941Z,98659.34
2018-09-11T01:28:45.018Z,98651.57
2018-09-11T01:29:47.992Z,98652.60
2018-09-11T01:30:50.812Z,98655.61
2018-09-11T01:31:53.678Z,98655.52
2018-09-11T01:32:56.619Z,98654.64
2018-09-11T01:33:59.416Z,98653.91
2018-09-11T01:35:02.477Z,98651.27
2018-09-11T01:36:05.324Z,98653.64
2018-09-11T01:37:08.109Z,98650.48
2018-09-11T01:38:10.894Z,98650.39
2018-09-11T01:39:14.906Z,98648.41
2018-09-11T01:40:17.802Z,98645.37
2018-09-11T01:41:20.947Z,98643.23
2018-09-11T01:42:24.068Z,98640.74
2018-09-11T01:43:26.831Z,98642.84
2018-09-11T01:44:30.044Z,98643.85
2018-09-11T01:45:32.761Z,98640.14
2018-09-11T01:46:35.502Z,98643.01
2018-09-11T01:47:38.522Z,98636.75
2018-09-11T01:48:41.288Z,98637.59
2018-09-11T01:49:44.049Z,98638.75
2018-09-11T01:50:46.788Z,98641.94
2018-09-11T01:51:49.540Z,98639.39
2018-09-11T01:52:52.281Z,98640.06
2018-09-11T01:53:55.372Z,98644.46
2018-09-11T01:54:58.351Z,98642.91
2018-09-11T01:56:01.149Z,98640.11
2018-09-11T01:57:03.911Z,98638.59
2018-09-11T01:58:06.650Z,98642.29
2018-09-11T01:59:09.373Z,98645.91
2018-09-11T02:00:17.040Z,98648.97
2018-09-11T02:01:19.807Z,98637.73
2018-09-11T02:02:23.024Z,98632.52
2018-09-11T02:03:26.045Z,98635.25
2018-09-11T02:04:29.141Z,98639.75
2018-09-11T02:05:32.524Z,98638.70
2018-09-11T02:06:35.561Z,98637.30
2018-09-11T02:07:38.272Z,98639.69
2018-09-11T02:08:41.019Z,98630.55
2018-09-11T02:09:43.752Z,98629.82
2018-09-11T02:10:46.507Z,98629.64
2018-09-11T02:11:49.249Z,98633.53
2018-09-11T02:12:52.276Z,98634.28
2018-09-11T02:13:55.018Z,98632.31
2018-09-11T02:14:57.953Z,98630.06
2018-09-11T02:16:00.736Z,98627.11
2018-09-11T02:17:03.505Z,98626.65
2018-09-11T02:18:06.290Z,98629.72
2018-09-11T02:19:09.374Z,98634.27
2018-09-11T02:20:12.218Z,98637.09
2018-09-11T02:21:16.556Z,98636.63
2018-09-11T02:22:19.326Z,98634.78
2018-09-11T02:23:22.315Z,98633.17
2018-09-11T02:24:25.087Z,98632.81
2018-09-11T02:25:28.102Z,98631.19
2018-09-11T02:26:30.893Z,98630.66
2018-09-11T02:27:33.743Z,98630.17
2018-09-11T02:28:36.503Z,98630.41
2018-09-11T02:29:39.227Z,98635.68
2018-09-11T02:30:49.148Z,98628.42
2018-09-11T02:31:51.919Z,98632.00
2018-09-11T02:32:54.712Z,98628.41
2018-09-11T02:33:57.456Z,98629.05
2018-09-11T02:35:00.278Z,98625.53
2018-09-11T02:36:03.124Z,98620.16
2018-09-11T02:37:06.169Z,98621.03
2018-09-11T02:38:09.505Z,98617.89
2018-09-11T02:39:13.449Z,98620.33
2018-09-11T02:40:16.241Z,98625.23
2018-09-11T02:41:18.997Z,98619.78
2018-09-11T02:42:21.779Z,98618.75
2018-09-11T02:43:24.822Z,98614.09
2018-09-11T02:44:27.586Z,98618.27
2018-09-11T02:45:30.344Z,98614.48
2018-09-11T02:46:33.150Z,98614.39
2018-09-11T02:47:35.914Z,98610.45
2018-09-11T02:48:38.724Z,98617.38
2018-09-11T02:49:41.903Z,98615.84
2018-09-11T02:50:44.649Z,98615.86
2018-09-11T02:51:47.513Z,98618.86
2018-09-11T02:52:50.412Z,98618.20
2018-09-11T02:53:53.151Z,98616.12
2018-09-11T02:54:56.024Z,98614.91
2018-09-11T02:55:59.110Z,98615.28
2018-09-11T02:57:01.884Z,98610.91
2018-09-11T02:58:04.717Z,98615.17
2018-09-11T02:59:08.126Z,98616.20
2018-09-11T03:00:10.895Z,98615.08
2018-09-11T03:01:13.638Z,98610.16
2018-09-11T03:02:16.928Z,98609.46
2018-09-11T03:03:19.725Z,98608.64
2018-09-11T03:04:22.502Z,98608.35
2018-09-11T03:05:25.301Z,98610.52
2018-09-11T03:06:28.092Z,98612.86
2018-09-11T03:07:30.877Z,98620.22
2018-09-11T03:08:33.950Z,98612.35
2018-09-11T03:09:36.696Z,98611.86
2018-09-11T03:10:39.447Z,98612.89
2018-09-11T03:11:42.222Z,98617.81
2018-09-11T03:12:45.000Z,98619.64
2018-09-11T03:13:47.791Z,98616.20
2018-09-11T03:14:51.081Z,98615.70
2018-09-11T03:15:56.840Z,98614.00
2018-09-11T03:17:00.340Z,98613.14
2018-09-11T03:18:03.133Z,98606.57
2018-09-11T03:19:05.887Z,98608.35
2018-09-11T03:20:08.696Z,98608.97
2018-09-11T03:21:11.761Z,98607.27
2018-09-11T03:22:14.494Z,98602.71
2018-09-11T03:23:17.655Z,98603.92
2018-09-11T03:24:20.436Z,98603.05
2018-09-11T03:25:23.181Z,98602.07
2018-09-11T03:26:25.930Z,98599.04
2018-09-11T03:27:31.127Z,98599.83
2018-09-11T03:28:34.517Z,98601.52
2018-09-11T03:29:37.367Z,98607.27
2018-09-11T03:30:40.122Z,98606.66
2018-09-11T03:31:42.910Z,98611.63
2018-09-11T03:32:45.735Z,98616.63
2018-09-11T03:33:48.789Z,98618.08
2018-09-11T03:34:51.852Z,98613.90
2018-09-11T03:35:54.602Z,98624.24
2018-09-11T03:36:57.368Z,98623.13
2018-09-11T03:38:00.198Z,98615.97
2018-09-11T03:39:03.042Z,98619.98
2018-09-11T03:40:06.117Z,98619.03
2018-09-11T03:41:08.868Z,98618.16
2018-09-11T03:42:11.624Z,98627.71
2018-09-11T03:43:14.407Z,98625.53
2018-09-11T03:44:17.352Z,98624.33
2018-09-11T03:45:20.117Z,98622.47
2018-09-11T03:46:22.902Z,98626.18
2018-09-11T03:47:25.725Z,98629.86
2018-09-11T03:48:28.586Z,98630.89
2018-09-11T03:49:31.442Z,98631.63
2018-09-11T03:50:34.198Z,98626.26
2018-09-11T03:51:37.269Z,98628.66
2018-09-11T03:52:40.168Z,98633.00
2018-09-11T03:53:43.573Z,98629.36
2018-09-11T03:54:46.363Z,98622.79
2018-09-11T03:55:49.345Z,98627.38
2018-09-11T03:56:53.075Z,98627.22
2018-09-11T03:57:56.113Z,98631.56
2018-09-11T03:58:58.891Z,98629.37
2018-09-11T04:00:01.647Z,98631.23
2018-09-11T04:01:04.457Z,98630.11
2018-09-11T04:02:07.200Z,98630.52
2018-09-11T04:03:09.973Z,98629.23
2018-09-11T04:04:13.098Z,98637.89
2018-09-11T04:05:15.853Z,98638.63
2018-09-11T04:06:18.602Z,98636.85
2018-09-11T04:07:21.395Z,98637.97
2018-09-11T04:08:24.157Z,98640.95
2018-09-11T04:09:26.939Z,98639.83
2018-09-11T04:10:29.684Z,98642.64
2018-09-11T04:11:32.451Z,98648.17
2018-09-11T04:12:35.259Z,98650.66
2018-09-11T04:13:38.017Z,98641.51
2018-09-11T04:14:40.845Z,98643.98
2018-09-11T04:15:43.923Z,98644.78
2018-09-11T04:16:46.702Z,98640.23
2018-09-11T04:17:49.440Z,98641.83
2018-09-11T04:18:52.239Z,98644.39
2018-09-11T04:19:54.989Z,98646.80
2018-09-11T04:20:57.765Z,98643.77
2018-09-11T04:22:00.861Z,98641.05
2018-09-11T04:23:03.775Z,98641.36
2018-09-11T04:24:06.554Z,98644.95
2018-09-11T04:25:09.538Z,98644.66
2018-09-11T04:26:12.649Z,98647.48
2018-09-11T04:27:15.440Z,98642.16
2018-09-11T04:28:18.571Z,98639.39
2018-09-11T04:29:21.372Z,98639.30
2018-09-11T04:30:24.178Z,98634.21
2018-09-11T04:31:27.018Z,98636.78
2018-09-11T04:32:29.802Z,98637.65
2018-09-11T04:33:32.659Z,98643.25
2018-09-11T04:34:35.741Z,98642.22
2018-09-11T04:35:38.528Z,98638.94
2018-09-11T04:36:41.341Z,98642.53
2018-09-11T04:37:44.959Z,98637.33
2018-09-11T04:38:47.752Z,98643.85
2018-09-11T04:39:50.534Z,98637.61
2018-09-11T04:40:53.662Z,98647.74
2018-09-11T04:41:56.472Z,98647.91
2018-09-11T04:42:59.238Z,98646.55
2018-09-11T04:44:02.061Z,98643.41
2018-09-11T04:45:04.851Z,98642.53
2018-09-11T04:46:09.729Z,98643.48
2018-09-11T04:47:13.021Z,98641.70
2018-09-11T04:48:15.799Z,98640.58
2018-09-11T04:49:18.870Z,98638.88
2018-09-11T04:50:21.649Z,98641.02
2018-09-11T04:51:24.439Z,98638.28
2018-09-11T04:52:27.209Z,98635.95
2018-09-11T04:53:30.447Z,98635.71
2018-09-11T04:54:33.333Z,98629.14
2018-09-11T04:55:37.562Z,98635.63
2018-09-11T04:56:40.343Z,98636.45
2018-09-11T04:57:43.127Z,98638.05
2018-09-11T04:58:45.925Z,98637.82
2018-09-11T04:59:49.091Z,98639.99
2018-09-11T05:00:51.865Z,98641.59
2018-09-11T05:01:54.661Z,98637.49
2018-09-11T05:02:57.669Z,98639.82
2018-09-11T05:04:00.429Z,98643.73
2018-09-11T05:05:03.258Z,98635.48
2018-09-11T05:06:06.335Z,98637.82
2018-09-11T05:07:09.275Z,98640.62
2018-09-11T05:08:12.054Z,98644.89
2018-09-11T05:09:14.858Z,98644.04
2018-09-11T05:10:17.637Z,98644.73
2018-09-11T05:11:20.421Z,98646.64
2018-09-11T05:12:23.176Z,98648.83
2018-09-11T05:13:25.962Z,98647.56
2018-09-11T05:14:28.709Z,98646.67
2018-09-11T05:15:31.486Z,98647.27
2018-09-11T05:16:34.233Z,98648.16
2018-09-11T05:17:36.988Z,98650.02
2018-09-11T05:18:39.744Z,98650.86
2018-09-11T05:19:42.505Z,98649.17
2018-09-11T05:20:45.381Z,98648.41
2018-09-11T05:21:48.189Z,98655.86
2018-09-11T05:22:50.965Z,98649.12
2018-09-11T05:23:54.493Z,98649.99
2018-09-11T05:24:58.813Z,98648.58
2018-09-11T05:26:01.626Z,98659.73
2018-09-11T05:27:04.420Z,98648.25
2018-09-11T05:28:07.539Z,98647.38
2018-09-11T05:29:10.309Z,98645.05
2018-09-11T05:30:13.124Z,98652.91
2018-09-11T05:33:31.641Z,98651.69
2018-09-11T05:34:35.588Z,98656.60
2018-09-11T05:35:38.390Z,98654.74
2018-09-11T05:36:41.209Z,98650.90
2018-09-11T05:37:44.050Z,98660.04
2018-09-11T05:38:47.034Z,98657.48
2018-09-11T05:39:51.320Z,98660.79
2018-09-11T05:40:54.111Z,98652.44
2018-09-11T05:41:57.038Z,98653.31
2018-09-11T05:42:59.845Z,98658.61
2018-09-11T05:44:02.609Z,98649.88
2018-09-11T05:45:05.393Z,98654.11
2018-09-11T05:46:08.681Z,98661.17
2018-09-11T05:47:11.513Z,98661.09
2018-09-11T05:48:14.310Z,98663.03
2018-09-11T05:49:17.103Z,98667.42
2018-09-11T05:50:19.880Z,98658.85
2018-09-11T05:51:22.787Z,98659.13
2018-09-11T05:52:27.116Z,98659.03
2018-09-11T05:53:29.869Z,98650.99
2018-09-11T05:54:33.129Z,98653.81
2018-09-11T05:55:35.929Z,98663.55
2018-09-11T05:56:39.409Z,98660.16
2018-09-11T05:57:42.161Z,98656.62
2018-09-11T05:58:45.379Z,98661.06
2018-09-11T05:59:48.123Z,98655.97
2018-09-11T06:00:50.880Z,98654.03
2018-09-11T06:01:53.724Z,98652.36
2018-09-11T06:02:56.508Z,98653.09
2018-09-11T06:03:59.264Z,98650.42
2018-09-11T06:05:02.334Z,98651.11
2018-09-11T06:06:05.180Z,98647.77
2018-09-11T06:07:07.953Z,98645.48
2018-09-11T06:08:10.684Z,98650.65
2018-09-11T06:09:14.997Z,98637.72
2018-09-11T06:10:17.935Z,98635.47
2018-09-11T06:11:20.739Z,98636.86
2018-09-11T06:12:23.509Z,98631.63
2018-09-11T06:13:26.909Z,98635.15
2018-09-11T06:14:29.770Z,98638.37
2018-09-11T06:15:32.552Z,98636.41
2018-09-11T06:16:35.840Z,98631.84
2018-09-11T06:17:39.969Z,98631.63
2018-09-11T06:18:42.786Z,98635.36
2018-09-11T06:19:45.691Z,98642.42
2018-09-11T06:20:49.459Z,98638.52
2018-09-11T06:21:52.332Z,98643.57
2018-09-11T06:22:55.457Z,98645.73
2018-09-11T06:23:58.212Z,98646.55
2018-09-11T06:25:01.006Z,98643.95
2018-09-11T06:26:03.815Z,98646.70
2018-09-11T06:27:06.683Z,98647.30
2018-09-11T06:28:09.488Z,98646.47
2018-09-11T06:29:12.804Z,98650.81
2018-09-11T06:30:15.558Z,98648.62
2018-09-11T06:31:18.448Z,98644.07
2018-09-11T06:32:24.843Z,98652.13
2018-09-11T06:33:28.035Z,98656.96
2018-09-11T06:34:30.809Z,98654.26
2018-09-11T06:35:34.346Z,98660.36
2018-09-11T06:36:37.278Z,98660.36
2018-09-11T06:37:40.022Z,98659.28
2018-09-11T06:38:42.781Z,98657.41
2018-09-11T06:39:45.667Z,98657.23
2018-09-11T06:40:48.957Z,98659.97
2018-09-11T06:41:52.005Z,98657.94
2018-09-11T06:42:55.002Z,98663.70
2018-09-11T06:43:58.463Z,98668.30
2018-09-11T06:45:01.228Z,98661.44
2018-09-11T06:46:04.089Z,98665.50
2018-09-11T06:47:08.752Z,98665.76
2018-09-11T06:48:12.022Z,98666.14
2018-09-11T06:49:14.844Z,98662.82
2018-09-11T06:50:18.173Z,98666.25
2018-09-11T06:51:23.889Z,98665.13
2018-09-11T06:52:27.486Z,98673.72
2018-09-11T06:53:31.405Z,98673.88
2018-09-11T06:54:34.740Z,98672.05
2018-09-11T06:55:37.591Z,98662.58
2018-09-11T06:56:40.356Z,98671.59
2018-09-11T06:57:43.166Z,98673.89
2018-09-11T06:58:45.953Z,98673.54
2018-09-11T06:59:48.730Z,98673.98
2018-09-11T07:00:51.908Z,98673.08
2018-09-11T07:01:54.788Z,98677.08
2018-09-11T07:02:57.503Z,98676.00
2018-09-11T07:04:00.262Z,98671.77
2018-09-11T07:05:03.137Z,98676.68
2018-09-11T07:06:05.995Z,98673.34
2018-09-11T07:07:08.764Z,98672.45
2018-09-11T07:08:12.344Z,98677.13
2018-09-11T07:09:15.774Z,98671.38
2018-09-11T07:10:18.502Z,98678.35
2018-09-11T07:11:21.301Z,98674.02
2018-09-11T07:12:24.748Z,98674.25
2018-09-11T07:13:27.805Z,98673.70
2018-09-11T07:14:30.648Z,98677.09
2018-09-11T07:15:33.425Z,98675.00
2018-09-11T07:16:36.197Z,98675.37
2018-09-11T07:17:40.531Z,98675.97
2018-09-11T07:18:43.291Z,98675.16
2018-09-11T07:19:46.596Z,98681.04
2018-09-11T07:20:49.486Z,98679.20
2018-09-11T07:21:52.465Z,98675.63
2018-09-11T07:22:55.676Z,98675.39
2018-09-11T07:24:00.005Z,98673.23
2018-09-11T07:25:02.764Z,98673.34
2018-09-11T07:26:06.434Z,98671.95
2018-09-11T07:27:09.234Z,98676.88
2018-09-11T07:28:12.565Z,98675.97
2018-09-11T07:29:15.495Z,98670.52
2018-09-11T07:30:18.365Z,98673.00
2018-09-11T07:31:21.859Z,98669.33
2018-09-11T07:32:25.351Z,98669.84
2018-09-11T07:33:28.760Z,98674.82
2018-09-11T07:34:31.542Z,98673.55
2018-09-11T07:35:35.039Z,98676.98
2018-09-11T07:36:38.312Z,98676.17
2018-09-11T07:37:45.008Z,98674.51
2018-09-11T07:38:49.594Z,98677.03
2018-09-11T07:39:52.453Z,98677.86
2018-09-11T07:40:55.428Z,98676.56
2018-09-11T07:41:59.517Z,98675.35
2018-09-11T07:43:02.315Z,98672.23
2018-09-11T07:44:05.114Z,98679.69
2018-09-11T07:45:08.275Z,98667.45
2018-09-11T07:46:11.050Z,98674.00
2018-09-11T07:47:14.728Z,98675.28
2018-09-11T07:48:17.492Z,98676.04
2018-09-11T07:49:22.961Z,98676.83
2018-09-11T07:50:25.803Z,98672.80
2018-09-11T07:51:30.021Z,98679.37
2018-09-11T07:52:32.976Z,98679.18
2018-09-11T07:53:35.802Z,98671.22
2018-09-11T07:54:39.505Z,98675.05
2018-09-11T07:55:42.335Z,98682.23
2018-09-11T07:56:45.542Z,98683.99
2018-09-11T07:57:48.700Z,98684.66
2018-09-11T07:58:51.412Z,98678.39
2018-09-11T07:59:55.009Z,98667.19
2018-09-11T08:00:57.801Z,98669.78
2018-09-11T08:02:00.585Z,98676.27
2018-09-11T08:03:05.117Z,98679.38
2018-09-11T08:04:08.255Z,98676.50
2018-09-11T08:05:11.122Z,98673.02
2018-09-11T08:06:15.616Z,98668.66
2018-09-11T08:07:19.237Z,98684.37
2018-09-11T08:08:23.527Z,98684.41
2018-09-11T08:09:26.395Z,98672.70
2018-09-11T08:10:30.340Z,98683.09
2018-09-11T08:11:33.246Z,98687.63
2018-09-11T08:12:36.046Z,98690.11
2018-09-11T08:13:42.471Z,98677.58
2018-09-11T08:14:45.232Z,98682.45
2018-09-11T08:15:48.281Z,98685.98
2018-09-11T08:16:51.602Z,98681.00
2018-09-11T08:17:54.606Z,98677.56
2018-09-11T08:18:57.442Z,98671.84
2018-09-11T08:20:01.853Z,98678.59
2018-09-11T08:21:06.407Z,98683.22
2018-09-11T08:22:09.176Z,98665.36
2018-09-11T08:23:12.409Z,98681.25
2018-09-11T08:24:16.299Z,98670.65
2018-09-11T08:25:19.971Z,98673.28
2018-09-11T08:26:22.709Z,98676.73
2018-09-11T08:27:25.716Z,98671.66
2018-09-11T08:28:28.510Z,98674.20
2018-09-11T08:29:32.589Z,98667.30
2018-09-11T08:30:37.110Z,98669.44
2018-09-11T08:31:40.505Z,98676.47
2018-09-11T08:32:43.373Z,98670.44
2018-09-11T08:33:46.236Z,98669.15
2018-09-11T08:34:49.010Z,98664.91
2018-09-11T08:35:52.182Z,98670.57
2018-09-11T08:36:55.497Z,98679.37
2018-09-11T08:37:58.245Z,98666.87
2018-09-11T08:39:01.614Z,98672.09
2018-09-11T08:40:04.391Z,98665.27
2018-09-11T08:41:09.158Z,98676.28
2018-09-11T08:42:11.961Z,98684.71
2018-09-11T08:43:14.744Z,98678.80
2018-09-11T08:44:20.280Z,98684.37
2018-09-11T08:45:23.600Z,98675.72
2018-09-11T08:46:26.701Z,98671.41
2018-09-11T08:47:29.526Z,98672.06
2018-09-11T08:48:32.716Z,98665.48
2018-09-11T08:49:35.632Z,98677.09
2018-09-11T08:50:38.462Z,98673.75
2018-09-11T08:51:42.991Z,98686.04
2018-09-11T08:52:46.032Z,98683.63
2018-09-11T08:53:50.455Z,98679.75
2018-09-11T08:54:57.020Z,98688.52
2018-09-11T08:55:59.802Z,98677.97
2018-09-11T08:57:02.596Z,98688.36
2018-09-11T08:58:06.113Z,98684.51
2018-09-11T08:59:09.492Z,98693.28
2018-09-11T09:00:13.769Z,98688.81
2018-09-11T09:01:18.693Z,98672.73
2018-09-11T09:02:22.249Z,98689.30
2018-09-11T09:03:25.008Z,98693.79
2018-09-11T09:04:27.971Z,98687.14
2018-09-11T09:05:31.424Z,98694.86
2018-09-11T09:06:34.996Z,98690.19
2018-09-11T09:07:39.318Z,98692.36
2018-09-11T09:08:42.267Z,98684.15
2018-09-11T09:09:45.207Z,98691.33
2018-09-11T09:10:47.996Z,98692.28
2018-09-11T09:11:50.737Z,98686.22
2018-09-11T09:12:54.599Z,98685.69
2018-09-11T09:13:57.651Z,98684.55
2018-09-11T09:15:00.468Z,98683.91
2018-09-11T09:16:03.237Z,98686.09
2018-09-11T09:17:06.115Z,98676.66
2018-09-11T09:18:10.906Z,98672.28
2018-09-11T09:19:13.808Z,98674.42
2018-09-11T09:20:17.084Z,98685.53
2018-09-11T09:21:19.833Z,98687.08
2018-09-11T09:22:22.630Z,98677.92
2018-09-11T09:23:25.421Z,98678.82
2018-09-11T09:24:28.273Z,98678.44
2018-09-11T09:25:31.727Z,98686.20
2018-09-11T09:26:34.753Z,98684.97
2018-09-11T09:27:38.299Z,98671.28
2018-09-11T09:28:42.666Z,98676.66
2018-09-11T09:29:45.671Z,98679.30
2018-09-11T09:30:50.302Z,98682.89
2018-09-11T09:31:53.081Z,98681.94
2018-09-11T09:32:56.222Z,98693.31
2018-09-11T09:34:00.543Z,98687.04
2018-09-11T09:35:05.089Z,98683.75
2018-09-11T09:36:07.981Z,98681.59
2018-09-11T09:37:11.507Z,98670.52
2018-09-11T09:38:14.293Z,98669.84
2018-09-11T09:39:19.856Z,98663.50
2018-09-11T09:40:22.789Z,98671.69
2018-09-11T09:41:28.349Z,98670.56
2018-09-11T09:42:37.050Z,98674.60
2018-09-11T09:43:40.835Z,98669.02
2018-09-11T09:44:44.168Z,98645.99
2018-09-11T09:45:47.348Z,98626.24
2018-09-11T09:46:50.169Z,98666.21
2018-09-11T09:47:53.036Z,98646.02
2018-09-11T09:48:56.431Z,98647.77
2018-09-11T09:49:59.509Z,98623.16
2018-09-11T09:51:02.333Z,98647.39
2018-09-11T09:52:05.755Z,98652.82
2018-09-11T09:53:09.308Z,98638.05
2018-09-11T09:54:12.161Z,98629.69
2018-09-11T09:55:21.357Z,98661.69
2018-09-11T09:56:24.791Z,98663.66
2018-09-11T09:57:27.517Z,98670.31
2018-09-11T09:58:30.892Z,98659.95
2018-09-11T09:59:34.528Z,98636.08
2018-09-11T10:00:42.319Z,98646.45
2018-09-11T10:01:50.453Z,98645.28
2018-09-11T10:02:55.128Z,98647.96
2018-09-11T10:03:57.979Z,98648.20
2018-09-11T10:05:01.155Z,98637.34
2018-09-11T10:06:04.132Z,98631.98
2018-09-11T10:07:06.900Z,98634.34
2018-09-11T10:08:09.665Z,98641.75
2018-09-11T10:09:13.804Z,98639.92
2018-09-11T10:10:17.362Z,98661.76
2018-09-11T10:11:20.428Z,98636.06
2018-09-11T10:12:23.197Z,98587.50
2018-09-11T10:13:25.974Z,98644.67
2018-09-11T10:14:29.551Z,98665.17
2018-09-11T10:15:32.380Z,98616.41
2018-09-11T10:16:35.609Z,98652.20
2018-09-11T10:17:38.539Z,98663.50
2018-09-11T10:18:41.323Z,98646.82
2018-09-11T10:19:44.244Z,98653.20
2018-09-11T10:20:48.688Z,98592.06
2018-09-11T10:21:51.418Z,98661.20
2018-09-11T10:22:56.145Z,98633.47
2018-09-11T10:24:00.666Z,98637.13
2018-09-11T10:25:03.741Z,98635.80
2018-09-11T10:26:07.504Z,98646.20
2018-09-11T10:27:13.372Z,98627.18
2018-09-11T10:28:16.186Z,98632.88
2018-09-11T10:29:20.391Z,98629.63
2018-09-11T10:30:23.868Z,98618.56
2018-09-11T10:32:32.635Z,98618.07
2018-09-11T10:33:35.943Z,98599.44
2018-09-11T10:34:39.616Z,98618.72
2018-09-11T10:35:43.588Z,98612.20
2018-09-11T10:36:46.374Z,98621.27
2018-09-11T10:37:49.171Z,98624.77
2018-09-11T10:38:53.467Z,98623.22
2018-09-11T10:39:57.368Z,98627.31
2018-09-11T10:41:00.760Z,98631.73
2018-09-11T10:42:03.952Z,98618.14
2018-09-11T10:43:07.637Z,98603.02
2018-09-11T10:44:11.566Z,98608.20
2018-09-11T10:45:14.505Z,98632.19
2018-09-11T10:46:17.315Z,98604.02
2018-09-11T10:47:20.659Z,98591.20
2018-09-11T10:48:23.859Z,98609.44
2018-09-11T10:49:27.077Z,98615.34
2018-09-11T10:50:30.495Z,98628.40
2018-09-11T10:51:33.434Z,98622.77
2018-09-11T10:52:36.337Z,98620.61
2018-09-11T10:53:40.437Z,98619.66
2018-09-11T10:54:43.810Z,98612.91
2018-09-11T10:55:46.716Z,98630.72
2018-09-11T10:56:49.790Z,98629.95
2018-09-11T10:57:53.224Z,98630.64
2018-09-11T10:58:56.373Z,98637.77
2018-09-11T10:59:59.149Z,98640.91
2018-09-11T11:01:06.760Z,98631.48
2018-09-11T11:02:09.665Z,98645.03
2018-09-11T11:03:12.600Z,98634.30
2018-09-11T11:04:15.473Z,98639.59
2018-09-11T11:05:18.216Z,98608.66
2018-09-11T11:06:21.014Z,98610.31
2018-09-11T11:07:24.306Z,98611.98
2018-09-11T11:08:27.115Z,98621.12
2018-09-11T11:09:30.743Z,98624.18
2018-09-11T11:10:33.612Z,98615.07
2018-09-11T11:11:37.580Z,98610.77
2018-09-11T11:12:41.577Z,98608.60
2018-09-11T11:13:44.431Z,98601.33
2018-09-11T11:14:47.199Z,98603.69
2018-09-11T11:15:50.127Z,98605.09
2018-09-11T11:16:53.397Z,98607.03
2018-09-11T11:17:56.630Z,98615.78
2018-09-11T11:19:01.473Z,98604.50
2018-09-11T11:20:04.736Z,98589.81
2018-09-11T11:21:08.163Z,98613.59
2018-09-11T11:22:11.952Z,98620.94
2018-09-11T11:23:15.981Z,98617.28
2018-09-11T11:24:20.586Z,98607.50
2018-09-11T11:25:23.808Z,98601.73
2018-09-11T11:26:26.656Z,98597.17
2018-09-11T11:27:29.430Z,98611.34
2018-09-11T11:28:33.158Z,98621.93
2018-09-11T11:29:36.332Z,98609.50
2018-09-11T11:30:39.094Z,98603.52
2018-09-11T11:31:42.460Z,98603.89
2018-09-11T11:32:46.243Z,98589.97
2018-09-11T11:33:49.252Z,98614.42
2018-09-11T11:34:52.104Z,98613.45
2018-09-11T11:35:54.923Z,98612.44
2018-09-11T11:36:58.618Z,98604.49
2018-09-11T11:38:02.310Z,98609.23
2018-09-11T11:39:06.796Z,98593.78
2018-09-11T11:40:10.509Z,98593.11
2018-09-11T11:41:13.323Z,98591.98
2018-09-11T11:42:16.106Z,98606.09
2018-09-11T11:43:19.603Z,98597.75
2018-09-11T11:44:23.199Z,98599.28
2018-09-11T11:45:27.554Z,98590.52
2018-09-11T11:46:30.343Z,98599.30
2018-09-11T11:47:33.560Z,98595.55
2018-09-11T11:48:37.608Z,98580.66
2018-09-11T11:49:40.542Z,98586.97
2018-09-11T11:50:45.365Z,98584.89
2018-09-11T11:51:49.713Z,98586.05
2018-09-11T11:52:52.606Z,98590.36
2018-09-11T11:53:56.023Z,98589.75
2018-09-11T11:54:58.883Z,98605.11
2018-09-11T11:56:02.052Z,98602.92
2018-09-11T11:57:05.280Z,98600.14
2018-09-11T11:58:08.009Z,98597.16
2018-09-11T11:59:12.251Z,98577.23
2018-09-11T12:00:15.090Z,98585.06
2018-09-11T12:01:17.904Z,98579.50
2018-09-11T12:02:21.300Z,98583.28
2018-09-11T12:03:27.372Z,98589.85
2018-09-11T12:04:30.142Z,98586.58
2018-09-11T12:05:33.190Z,98564.78
2018-09-11T12:06:37.032Z,98595.75
2018-09-11T12:07:40.647Z,98564.36
2018-09-11T12:08:43.836Z,98577.29
2018-09-11T12:09:46.601Z,98557.63
2018-09-11T12:10:49.734Z,98579.21
2018-09-11T12:11:53.143Z,98575.06
2018-09-11T12:12:55.919Z,98574.72
2018-09-11T12:13:58.723Z,98574.11
2018-09-11T12:15:03.369Z,98582.45
2018-09-11T12:16:06.265Z,98573.23
2018-09-11T12:17:09.704Z,98570.68
2018-09-11T12:18:12.530Z,98561.83
2018-09-11T12:19:15.361Z,98557.81
2018-09-11T12:20:19.101Z,98569.26
2018-09-11T12:21:23.302Z,98570.07
2018-09-11T12:22:31.461Z,98566.01
2018-09-11T12:23:36.501Z,98566.92
2018-09-11T12:24:40.458Z,98567.92
2018-09-11T12:25:43.607Z,98563.77